West Wickham, United Kingdom
Current Conditions -  °F | °C
As of 10:20 AM on Thursday 29 Jan 2015 (Local Time) from EGKB Reporting Station
Few Clouds Few Clouds  
Wind Chill: 29°   Ceiling: Unl
Heat Index: 37°   Visibility: 6mi
Dew Point: 30°   Wind: 14mph
Humidity: 75%   Direction: 240°WSW
Pressure: 29.12"   Gusts: NA
Location:  51.37°N, 0.02°W
Report Text: EGKB 291020Z 24012KT 200V270 9999 FEW030 03/M01 Q0986
Loading
Personal Weather Stations






























Interactive Weather Map New forecast layout! Learn more

10-Day Weather Forecast

Advertisements
Track Severe Weather on mobile